Time;durP1;ratioP1;P1;durP2;ratioP2;P2;SDS_P1;SDS_P2;PMS_P1;PMS_P2;Temp;Humidity;BMP_temperature;BMP_pressure;BME280_temperature;BME280_humidity;BME280_pressure;Samples;Min_cycle;Max_cycle;Signal;HPM_P1;HPM_P2
2022/01/29 00:00:07;;;;;;;8.93;2.35;;;4.70;67.70;;;;;;5135559;27;20057;-69
2022/01/29 00:02:33;;;;;;;14.15;2.92;;;4.70;67.80;;;;;;5136125;27;20370;-69
2022/01/29 00:04:59;;;;;;;13.70;2.97;;;4.70;67.80;;;;;;5136229;27;20016;-69
2022/01/29 00:07:25;;;;;;;12.88;3.17;;;4.70;67.70;;;;;;5135465;27;20046;-69
2022/01/29 00:09:50;;;;;;;9.85;2.85;;;4.80;67.90;;;;;;5136537;27;20504;-68
2022/01/29 00:12:16;;;;;;;12.73;2.78;;;4.70;68.10;;;;;;5135185;27;20030;-68
2022/01/29 00:14:43;;;;;;;11.23;3.15;;;4.70;68.00;;;;;;5135938;27;20103;-69
2022/01/29 00:17:11;;;;;;;12.23;2.50;;;4.70;68.10;;;;;;5135255;27;20433;-68
2022/01/29 00:19:40;;;;;;;8.55;2.67;;;4.70;68.30;;;;;;5135909;27;20368;-68
2022/01/29 00:22:06;;;;;;;12.98;2.40;;;4.70;68.40;;;;;;5135291;27;20383;-71
2022/01/29 00:24:32;;;;;;;11.15;2.17;;;4.70;68.30;;;;;;5135829;27;20022;-70
2022/01/29 00:26:57;;;;;;;12.43;2.70;;;4.70;68.70;;;;;;5135522;27;20028;-71
2022/01/29 00:29:23;;;;;;;11.52;2.50;;;4.70;68.90;;;;;;5135070;27;20046;-69
2022/01/29 00:31:49;;;;;;;12.70;2.75;;;4.70;69.00;;;;;;5135213;27;20463;-68
2022/01/29 00:34:15;;;;;;;9.88;2.28;;;4.70;69.00;;;;;;5134685;27;20094;-69
2022/01/29 00:36:40;;;;;;;13.15;2.58;;;4.70;68.90;;;;;;5117195;27;20151;-69
2022/01/29 00:39:06;;;;;;;14.43;3.42;;;4.70;68.70;;;;;;5126748;27;20582;-68
2022/01/29 00:41:32;;;;;;;16.77;2.58;;;4.70;68.60;;;;;;5114924;28;20079;-69
2022/01/29 00:43:58;;;;;;;14.00;2.67;;;4.70;68.60;;;;;;5114836;28;20019;-69
2022/01/29 00:46:23;;;;;;;14.00;2.75;;;4.70;68.70;;;;;;5113859;28;20051;-69
2022/01/29 00:48:49;;;;;;;10.77;2.40;;;4.70;68.80;;;;;;5115001;28;20038;-69
2022/01/29 00:51:15;;;;;;;9.07;2.70;;;4.70;68.40;;;;;;5113845;28;20032;-69
2022/01/29 00:53:40;;;;;;;12.98;2.50;;;4.70;68.20;;;;;;5114639;28;20400;-69
2022/01/29 00:56:07;;;;;;;11.50;2.42;;;4.60;68.30;;;;;;5114277;28;20055;-69
2022/01/29 00:58:33;;;;;;;12.00;3.35;;;4.60;68.40;;;;;;5114736;28;20073;-69
2022/01/29 01:01:00;;;;;;;11.10;2.60;;;4.60;68.50;;;;;;5114587;28;20036;-69
2022/01/29 01:03:26;;;;;;;14.82;3.35;;;4.50;68.50;;;;;;5114206;28;20023;-69
2022/01/29 01:05:51;;;;;;;9.80;2.45;;;4.60;68.80;;;;;;5114501;28;20026;-69
2022/01/29 01:08:17;;;;;;;13.95;2.45;;;4.50;69.30;;;;;;5114052;28;20084;-69
2022/01/29 01:10:43;;;;;;;12.15;2.67;;;4.50;68.70;;;;;;5114025;28;20052;-69
2022/01/29 01:13:08;;;;;;;13.48;2.55;;;4.50;68.90;;;;;;5113754;28;20023;-70
2022/01/29 01:15:34;;;;;;;12.20;2.45;;;4.50;68.90;;;;;;5114391;28;20114;-69
2022/01/29 01:18:00;;;;;;;15.43;2.97;;;4.50;68.90;;;;;;5114222;28;20024;-69
2022/01/29 01:20:26;;;;;;;14.32;2.85;;;4.40;69.00;;;;;;5113495;28;20032;-69
2022/01/29 01:22:51;;;;;;;11.57;2.33;;;4.40;69.10;;;;;;5113889;28;20375;-69
2022/01/29 01:25:17;;;;;;;11.65;2.85;;;4.40;69.10;;;;;;5113201;28;20026;-69
2022/01/29 01:27:43;;;;;;;15.25;2.85;;;4.40;69.30;;;;;;5113643;28;20028;-69
2022/01/29 01:30:09;;;;;;;14.23;2.80;;;4.40;69.40;;;;;;5113700;28;20088;-69
2022/01/29 01:32:36;;;;;;;15.43;2.42;;;4.40;69.50;;;;;;5113861;28;20472;-68
2022/01/29 01:35:19;;;;;;;12.75;2.67;;;4.40;69.70;;;;;;5125709;27;20406;-68
2022/01/29 01:37:54;;;;;;;9.80;2.20;;;4.30;69.80;;;;;;5134471;27;20115;-71
2022/01/29 01:40:21;;;;;;;10.25;2.33;;;4.30;69.80;;;;;;5133755;27;20023;-68
2022/01/29 01:42:47;;;;;;;14.15;2.67;;;4.30;70.10;;;;;;5134291;27;20102;-68
2022/01/29 01:45:13;;;;;;;14.55;2.42;;;4.30;70.10;;;;;;5133638;27;20051;-68
2022/01/29 01:47:39;;;;;;;12.73;3.15;;;4.30;70.20;;;;;;5133944;27;20444;-68
2022/01/29 01:50:08;;;;;;;13.82;2.53;;;4.30;70.40;;;;;;5133986;27;20057;-68
2022/01/29 01:52:33;;;;;;;15.82;3.17;;;4.30;70.50;;;;;;5133096;27;20031;-68
2022/01/29 01:54:59;;;;;;;15.43;2.80;;;4.30;70.60;;;;;;5134001;27;20126;-70
2022/01/29 01:57:24;;;;;;;11.38;2.92;;;4.20;70.70;;;;;;5133316;27;20101;-68
2022/01/29 01:59:50;;;;;;;10.60;2.88;;;4.20;70.80;;;;;;5133613;27;20035;-67
2022/01/29 02:02:16;;;;;;;17.38;3.35;;;4.20;71.00;;;;;;5133336;27;20132;-68
2022/01/29 02:04:42;;;;;;;11.45;2.60;;;4.20;71.00;;;;;;5133481;27;20032;-68
2022/01/29 02:07:07;;;;;;;12.13;2.50;;;4.20;71.00;;;;;;5133854;27;20023;-68
2022/01/29 02:09:33;;;;;;;11.65;2.72;;;4.20;71.40;;;;;;5133126;27;20460;-68
2022/01/29 02:12:04;;;;;;;11.73;2.60;;;4.10;71.30;;;;;;5133697;27;20041;-69
2022/01/29 02:14:32;;;;;;;13.02;2.83;;;4.10;71.40;;;;;;5133002;27;20468;-69
2022/01/29 02:17:00;;;;;;;12.55;3.17;;;4.10;71.50;;;;;;5133579;27;20498;-69
2022/01/29 02:19:26;;;;;;;11.85;2.65;;;4.10;71.40;;;;;;5132919;27;20019;-69
2022/01/29 02:21:52;;;;;;;14.57;3.20;;;4.10;71.60;;;;;;5133091;27;20543;-69
2022/01/29 02:24:18;;;;;;;15.68;3.78;;;4.10;71.70;;;;;;5132951;27;20015;-69
2022/01/29 02:26:44;;;;;;;10.32;3.00;;;4.10;71.80;;;;;;5133626;27;20371;-69
2022/01/29 02:29:09;;;;;;;11.93;2.53;;;4.10;71.60;;;;;;5133386;27;20448;-69
2022/01/29 02:31:35;;;;;;;19.20;3.20;;;4.10;72.00;;;;;;5132709;27;20114;-69
2022/01/29 02:34:01;;;;;;;14.88;2.78;;;4.10;72.80;;;;;;5133015;27;20045;-69
2022/01/29 02:36:26;;;;;;;16.00;3.38;;;4.00;73.20;;;;;;5132576;27;20043;-69
2022/01/29 02:38:52;;;;;;;11.57;2.50;;;4.00;73.60;;;;;;5133259;27;20019;-69
2022/01/29 02:41:19;;;;;;;12.13;2.78;;;4.00;73.90;;;;;;5118727;27;20036;-69
2022/01/29 02:43:49;;;;;;;10.50;2.60;;;3.90;74.00;;;;;;5112876;28;20027;-69
2022/01/29 02:48:46;;;;;;;10.80;2.92;;;3.90;74.00;;;;;;5112662;28;20031;-69
2022/01/29 02:51:12;;;;;;;10.77;2.72;;;3.90;74.00;;;;;;5112530;28;20529;-69
2022/01/29 02:53:38;;;;;;;10.32;2.45;;;3.90;73.90;;;;;;5111668;28;20024;-69
2022/01/29 02:56:04;;;;;;;14.38;3.95;;;3.90;73.90;;;;;;5112177;28;20127;-69
2022/01/29 02:58:30;;;;;;;8.18;2.50;;;3.90;73.90;;;;;;5111818;28;20123;-69
2022/01/29 03:00:55;;;;;;;10.18;2.65;;;3.90;74.00;;;;;;5112413;28;20055;-69
2022/01/29 03:03:21;;;;;;;8.55;2.42;;;3.90;74.60;;;;;;5117250;28;20165;-68
2022/01/29 03:05:47;;;;;;;12.88;2.75;;;3.90;75.10;;;;;;5119523;28;20055;-69
2022/01/29 03:08:13;;;;;;;14.05;3.13;;;3.90;75.30;;;;;;5119260;28;20499;-69
2022/01/29 03:10:39;;;;;;;14.40;3.17;;;3.90;75.80;;;;;;5100290;28;20357;-69
2022/01/29 03:13:04;;;;;;;12.50;2.90;;;3.80;76.10;;;;;;5119163;28;20030;-69
2022/01/29 03:15:30;;;;;;;14.13;3.10;;;3.80;76.20;;;;;;5118215;28;20027;-70
2022/01/29 03:17:56;;;;;;;14.40;3.60;;;3.80;76.90;;;;;;5119043;28;20030;-69
2022/01/29 03:20:22;;;;;;;12.90;3.17;;;3.80;76.90;;;;;;5118141;28;20031;-69
2022/01/29 03:22:47;;;;;;;13.95;3.53;;;3.80;77.80;;;;;;5119253;28;20371;-69
2022/01/29 03:25:13;;;;;;;15.52;3.33;;;3.80;78.50;;;;;;5119315;28;20107;-69
2022/01/29 03:27:39;;;;;;;8.88;3.58;;;3.80;79.40;;;;;;5122664;27;20027;-69
2022/01/29 03:30:07;;;;;;;16.58;3.65;;;3.70;80.00;;;;;;5139622;27;20106;-70
2022/01/29 03:32:32;;;;;;;13.10;3.38;;;3.70;80.40;;;;;;5138988;27;20030;-68
2022/01/29 03:34:58;;;;;;;16.85;4.07;;;3.70;81.40;;;;;;5139222;27;20023;-68
2022/01/29 03:37:24;;;;;;;15.23;4.13;;;3.60;82.10;;;;;;5138902;27;20053;-68
2022/01/29 03:39:50;;;;;;;14.38;4.00;;;3.60;82.60;;;;;;5121003;27;20088;-69
2022/01/29 03:42:16;;;;;;;16.67;4.10;;;3.60;83.00;;;;;;5139109;27;20059;-69
2022/01/29 03:44:42;;;;;;;16.27;4.22;;;3.60;83.50;;;;;;5138730;27;20038;-68
2022/01/29 03:47:08;;;;;;;11.73;3.72;;;3.60;84.30;;;;;;5139344;27;20027;-69
2022/01/29 03:49:33;;;;;;;13.55;3.97;;;3.60;84.60;;;;;;5138766;27;20067;-70
2022/01/29 03:51:59;;;;;;;16.85;4.70;;;3.60;85.30;;;;;;5139347;27;20023;-70
2022/01/29 03:54:25;;;;;;;14.02;4.25;;;3.60;85.50;;;;;;5138613;27;20024;-69
2022/01/29 03:56:51;;;;;;;12.40;3.75;;;3.60;85.90;;;;;;5139419;27;20507;-70
2022/01/29 03:59:16;;;;;;;16.88;4.85;;;3.50;86.90;;;;;;5139330;27;20106;-69
2022/01/29 04:01:42;;;;;;;14.23;4.45;;;3.50;87.70;;;;;;5138683;27;20109;-69
2022/01/29 04:04:08;;;;;;;16.02;4.20;;;3.50;88.00;;;;;;5138968;27;20020;-69
2022/01/29 04:06:34;;;;;;;16.55;4.97;;;3.50;88.70;;;;;;5138721;27;20055;-69
2022/01/29 04:09:04;;;;;;;17.30;5.32;;;3.50;89.20;;;;;;5139168;27;20379;-69
2022/01/29 04:11:30;;;;;;;13.93;5.07;;;3.50;89.50;;;;;;5138566;27;20027;-69
2022/01/29 04:13:55;;;;;;;16.77;4.93;;;3.50;90.00;;;;;;5137113;27;20035;-70
2022/01/29 04:19:05;;;;;;;17.75;5.35;;;3.40;90.40;;;;;;5135785;27;20486;-69
2022/01/29 04:21:31;;;;;;;19.40;5.57;;;3.40;90.70;;;;;;5135223;27;20031;-69
2022/01/29 04:23:57;;;;;;;16.25;5.25;;;3.40;91.20;;;;;;5135857;27;20027;-69
2022/01/29 04:26:22;;;;;;;13.70;5.07;;;3.40;91.60;;;;;;5135148;27;20024;-69
2022/01/29 04:28:49;;;;;;;15.98;4.95;;;3.40;91.80;;;;;;5136029;27;20034;-69
2022/01/29 04:31:18;;;;;;;16.75;6.03;;;3.30;92.20;;;;;;5135533;27;20058;-69
2022/01/29 04:33:45;;;;;;;15.68;5.40;;;3.30;92.50;;;;;;5134920;27;20432;-69
2022/01/29 04:36:11;;;;;;;19.75;6.10;;;3.30;92.60;;;;;;5135588;27;20031;-69
2022/01/29 04:38:37;;;;;;;11.57;5.20;;;3.30;92.90;;;;;;5134560;27;20024;-69
2022/01/29 04:41:04;;;;;;;17.27;4.95;;;3.40;93.10;;;;;;5135448;27;20034;-70
2022/01/29 04:43:34;;;;;;;17.30;6.60;;;3.30;93.10;;;;;;5134711;27;20091;-69
2022/01/29 04:46:01;;;;;;;15.70;5.75;;;3.30;93.20;;;;;;5133571;27;20027;-69
2022/01/29 04:48:27;;;;;;;15.25;5.55;;;3.40;93.60;;;;;;5114337;27;20032;-69
2022/01/29 04:50:53;;;;;;;20.17;6.60;;;3.40;93.40;;;;;;5114798;28;20027;-69
2022/01/29 04:53:19;;;;;;;17.58;6.18;;;3.40;93.30;;;;;;5114666;28;20024;-69
2022/01/29 04:55:44;;;;;;;14.82;5.40;;;3.40;93.30;;;;;;5113886;28;20095;-70
2022/01/29 04:58:10;;;;;;;18.60;5.72;;;3.40;93.40;;;;;;5114631;28;20076;-69
2022/01/29 05:00:36;;;;;;;17.38;6.15;;;3.40;93.50;;;;;;5113723;28;20513;-69
2022/01/29 05:03:10;;;;;;;17.35;5.88;;;3.40;93.50;;;;;;5096139;28;20115;-70
2022/01/29 05:05:37;;;;;;;17.48;6.00;;;3.40;93.60;;;;;;5113805;28;20020;-69
2022/01/29 05:08:03;;;;;;;21.90;6.70;;;3.40;93.60;;;;;;5114154;28;20051;-70
2022/01/29 05:10:29;;;;;;;14.60;6.35;;;3.40;93.70;;;;;;5113744;28;20070;-69
2022/01/29 05:13:01;;;;;;;14.85;6.57;;;3.40;93.80;;;;;;5114295;28;20440;-70
2022/01/29 05:28:52;;;;;;;14.68;6.80;;;3.40;94.60;;;;;;5134681;27;20080;-70
2022/01/29 05:31:18;;;;;;;17.38;7.25;;;3.40;94.90;;;;;;5134563;27;20434;-70
2022/01/29 05:33:44;;;;;;;15.50;6.55;;;3.40;95.10;;;;;;5133881;27;20099;-70
2022/01/29 05:36:09;;;;;;;16.52;6.93;;;3.40;95.20;;;;;;5134524;27;20055;-70
2022/01/29 05:38:35;;;;;;;16.60;6.40;;;3.30;95.20;;;;;;5133554;27;20064;-69
2022/01/29 05:41:05;;;;;;;11.98;6.50;;;3.30;95.50;;;;;;5134400;27;20357;-69
2022/01/29 05:43:31;;;;;;;20.95;7.63;;;3.40;95.50;;;;;;5133699;27;20027;-69
2022/01/29 05:49:00;;;;;;;19.60;7.13;;;3.40;95.80;;;;;;5134128;27;20118;-68
2022/01/29 05:51:30;;;;;;;16.63;6.97;;;3.30;95.90;;;;;;5134244;27;20110;-70
2022/01/29 05:54:00;;;;;;;16.63;7.57;;;3.30;96.00;;;;;;5133987;27;20031;-68
2022/01/29 05:56:27;;;;;;;17.73;7.93;;;3.40;96.10;;;;;;5133672;27;20119;-69
2022/01/29 05:58:52;;;;;;;22.90;8.13;;;3.30;96.00;;;;;;5133350;27;20102;-69
2022/01/29 06:01:18;;;;;;;19.20;8.18;;;3.40;96.20;;;;;;5133749;27;20106;-69
2022/01/29 06:03:44;;;;;;;22.60;8.15;;;3.40;96.20;;;;;;5133010;27;20054;-70
2022/01/29 06:06:10;;;;;;;16.92;7.68;;;3.40;96.30;;;;;;5133864;27;20023;-69
2022/01/29 06:08:35;;;;;;;19.05;9.13;;;3.40;96.40;;;;;;5133267;27;20054;-69
2022/01/29 06:11:01;;;;;;;18.15;8.65;;;3.40;96.50;;;;;;5133780;27;20030;-69
2022/01/29 06:13:26;;;;;;;19.73;9.20;;;3.40;96.70;;;;;;5133326;27;20031;-69
2022/01/29 06:15:53;;;;;;;15.57;8.90;;;3.40;96.70;;;;;;5132073;27;20351;-69
2022/01/29 06:18:22;;;;;;;19.13;9.32;;;3.40;96.90;;;;;;5132283;27;20019;-70
2022/01/29 06:21:03;;;;;;;23.52;9.93;;;3.40;97.10;;;;;;5131364;27;20045;-69
2022/01/29 06:23:31;;;;;;;15.73;9.15;;;3.40;97.20;;;;;;5132875;27;20359;-70
2022/01/29 06:25:59;;;;;;;20.50;9.65;;;3.50;97.30;;;;;;5132846;27;20046;-70
2022/01/29 06:28:25;;;;;;;20.67;9.50;;;3.40;97.40;;;;;;5132385;27;20031;-69
2022/01/29 06:30:51;;;;;;;18.13;9.80;;;3.50;97.40;;;;;;5132212;27;20224;-70
2022/01/29 06:33:16;;;;;;;23.42;10.13;;;3.50;97.50;;;;;;5133090;27;20038;-70
2022/01/29 06:35:43;;;;;;;23.48;10.82;;;3.50;97.60;;;;;;5132239;27;20023;-70
2022/01/29 06:38:11;;;;;;;22.38;10.50;;;3.50;97.60;;;;;;5132076;27;20428;-70
2022/01/29 06:40:37;;;;;;;18.60;10.10;;;3.50;97.60;;;;;;5132114;27;20498;-70
2022/01/29 06:43:04;;;;;;;15.98;9.38;;;3.50;97.60;;;;;;5132789;27;20451;-70
2022/01/29 06:45:32;;;;;;;23.67;10.35;;;3.50;97.50;;;;;;5131848;27;20184;-69
2022/01/29 06:47:57;;;;;;;18.48;9.82;;;3.60;97.60;;;;;;5130461;27;20118;-69
2022/01/29 06:50:24;;;;;;;23.25;10.93;;;3.60;97.50;;;;;;5131530;27;20586;-69
2022/01/29 06:52:50;;;;;;;16.75;10.30;;;3.60;97.40;;;;;;5132120;27;20028;-70
2022/01/29 06:55:15;;;;;;;23.42;9.95;;;3.60;97.40;;;;;;5132204;27;20126;-69
2022/01/29 06:57:41;;;;;;;19.20;10.25;;;3.60;97.30;;;;;;5132552;27;20027;-69
2022/01/29 07:00:08;;;;;;;18.42;9.80;;;3.70;97.30;;;;;;5132992;27;20364;-68
2022/01/29 07:02:34;;;;;;;15.82;9.43;;;3.70;97.10;;;;;;5133065;28;20053;-68
2022/01/29 07:05:00;;;;;;;16.40;9.63;;;3.70;96.80;;;;;;5132504;28;20547;-68
2022/01/29 07:07:26;;;;;;;20.90;9.77;;;3.80;96.60;;;;;;5130617;28;20102;-69
2022/01/29 07:09:52;;;;;;;22.17;10.95;;;3.80;96.50;;;;;;5131137;28;20178;-67
2022/01/29 07:12:18;;;;;;;16.45;10.13;;;3.80;96.40;;;;;;5132949;28;20020;-68
2022/01/29 07:14:44;;;;;;;20.65;9.63;;;3.90;96.10;;;;;;5131880;28;20030;-68
2022/01/29 07:17:12;;;;;;;20.50;9.73;;;3.90;96.00;;;;;;5132312;28;20063;-68
2022/01/29 07:19:38;;;;;;;20.00;10.15;;;4.00;95.90;;;;;;5131627;28;20032;-67
2022/01/29 07:22:05;;;;;;;17.40;10.02;;;4.00;95.90;;;;;;5132575;28;20039;-67
2022/01/29 07:24:50;;;;;;;15.73;9.38;;;4.10;95.70;;;;;;5132645;28;20110;-67
2022/01/29 07:27:16;;;;;;;20.35;10.48;;;4.20;95.50;;;;;;5132072;28;20104;-67
2022/01/29 07:29:41;;;;;;;17.08;9.55;;;4.20;95.30;;;;;;5130709;28;20023;-67
2022/01/29 07:32:08;;;;;;;15.25;8.35;;;4.30;94.90;;;;;;5130971;28;20027;-69
2022/01/29 07:34:34;;;;;;;18.20;9.32;;;4.40;94.30;;;;;;5131282;28;20019;-69
2022/01/29 07:37:00;;;;;;;18.38;9.07;;;4.40;94.00;;;;;;5130623;28;20092;-69
2022/01/29 07:39:27;;;;;;;21.27;8.77;;;4.40;93.80;;;;;;5131105;28;20023;-69
2022/01/29 07:41:53;;;;;;;14.63;8.95;;;4.50;93.40;;;;;;5127912;28;20035;-69
2022/01/29 07:44:19;;;;;;;14.15;8.15;;;4.50;92.90;;;;;;5132145;28;20539;-70
2022/01/29 07:46:45;;;;;;;15.98;8.77;;;4.50;92.60;;;;;;5132169;28;20027;-69
2022/01/29 07:49:11;;;;;;;21.60;8.95;;;4.60;92.40;;;;;;5133142;27;20037;-70
2022/01/29 07:51:37;;;;;;;17.73;7.93;;;4.60;92.20;;;;;;5135662;27;20106;-69
2022/01/29 07:54:03;;;;;;;18.05;8.95;;;4.60;92.10;;;;;;5136222;27;20023;-69
2022/01/29 07:56:29;;;;;;;16.75;8.70;;;4.60;91.90;;;;;;5136253;27;20133;-69
2022/01/29 07:58:55;;;;;;;24.35;8.95;;;4.60;91.70;;;;;;5135743;27;20148;-67
2022/01/29 08:01:21;;;;;;;17.08;8.52;;;4.60;91.60;;;;;;5136005;27;20039;-68
2022/01/29 08:03:48;;;;;;;16.50;8.23;;;4.70;91.30;;;;;;5135299;27;20035;-67
2022/01/29 08:06:14;;;;;;;15.75;8.30;;;4.70;91.00;;;;;;5135947;27;20068;-68
2022/01/29 08:08:40;;;;;;;18.27;8.90;;;4.70;91.00;;;;;;5135076;27;20476;-69
2022/01/29 08:11:07;;;;;;;17.05;8.68;;;4.70;90.90;;;;;;5135716;27;20037;-68
2022/01/29 08:16:17;;;;;;;13.30;7.65;;;4.70;90.70;;;;;;5115137;28;20038;-69
2022/01/29 08:18:45;;;;;;;11.65;7.00;;;4.70;90.50;;;;;;5128379;27;20094;-68
2022/01/29 08:21:15;;;;;;;14.50;7.53;;;4.80;90.20;;;;;;5134361;27;20027;-69
2022/01/29 08:23:41;;;;;;;13.02;7.43;;;4.80;90.10;;;;;;5133736;27;20479;-68
2022/01/29 08:26:08;;;;;;;10.68;6.68;;;4.80;89.90;;;;;;5134440;27;20383;-68
2022/01/29 08:28:33;;;;;;;10.68;6.47;;;4.80;89.30;;;;;;5134190;27;20019;-68
2022/01/29 08:30:59;;;;;;;11.65;6.03;;;4.90;88.80;;;;;;5134321;27;20171;-69
2022/01/29 08:33:24;;;;;;;13.15;6.88;;;4.90;88.20;;;;;;5135600;27;20023;-68
2022/01/29 08:35:50;;;;;;;10.30;6.47;;;4.90;88.10;;;;;;5134991;27;20030;-68
2022/01/29 08:38:16;;;;;;;13.90;6.30;;;4.90;88.10;;;;;;5130601;27;20035;-68
2022/01/29 08:40:42;;;;;;;10.60;6.60;;;5.00;87.60;;;;;;5114189;28;20118;-68
2022/01/29 08:43:08;;;;;;;13.02;6.32;;;5.00;86.50;;;;;;5129101;27;20027;-68
2022/01/29 08:45:34;;;;;;;10.48;5.55;;;5.10;86.40;;;;;;5134925;27;20027;-69
2022/01/29 08:48:00;;;;;;;10.85;6.32;;;5.10;85.90;;;;;;5134533;27;20027;-68
2022/01/29 08:50:26;;;;;;;11.18;5.45;;;5.10;85.40;;;;;;5135369;27;20034;-69
2022/01/29 08:52:52;;;;;;;9.18;5.85;;;5.20;84.90;;;;;;5134352;27;20456;-67
2022/01/29 08:55:17;;;;;;;11.07;5.55;;;5.20;84.90;;;;;;5134895;27;20439;-67
2022/01/29 08:57:43;;;;;;;18.20;6.32;;;5.30;83.60;;;;;;5134338;27;20023;-67
2022/01/29 09:00:10;;;;;;;11.77;5.32;;;5.30;83.50;;;;;;5134652;27;20035;-68
2022/01/29 09:02:35;;;;;;;12.45;6.03;;;5.30;83.40;;;;;;5135144;27;20030;-67
2022/01/29 09:05:02;;;;;;;13.70;6.10;;;5.30;83.20;;;;;;5134204;27;20102;-68
2022/01/29 09:07:28;;;;;;;13.85;5.82;;;5.40;83.20;;;;;;5134659;27;20102;-68
2022/01/29 09:09:54;;;;;;;12.43;5.80;;;5.40;82.20;;;;;;5133971;27;20065;-68
2022/01/29 09:12:21;;;;;;;13.20;5.70;;;5.40;82.00;;;;;;5134638;27;20023;-69
2022/01/29 09:14:47;;;;;;;11.05;5.47;;;5.40;81.70;;;;;;5133929;27;20031;-68
2022/01/29 09:17:12;;;;;;;12.70;5.88;;;5.40;81.10;;;;;;5134728;27;20030;-68
2022/01/29 09:19:38;;;;;;;11.25;6.47;;;5.50;80.80;;;;;;5132951;27;20020;-69
2022/01/29 09:22:04;;;;;;;10.43;5.53;;;5.50;81.00;;;;;;5133923;27;20039;-68
2022/01/29 09:24:30;;;;;;;9.55;5.93;;;5.50;80.70;;;;;;5133634;27;20091;-69
2022/01/29 09:26:56;;;;;;;10.38;4.97;;;5.60;80.30;;;;;;5133294;27;20038;-68
2022/01/29 09:29:22;;;;;;;10.30;5.20;;;5.60;80.40;;;;;;5133915;27;20408;-69
2022/01/29 09:31:48;;;;;;;9.00;4.88;;;5.60;80.00;;;;;;5133361;27;20053;-68
2022/01/29 09:34:13;;;;;;;7.25;3.90;;;5.70;80.70;;;;;;5133755;27;20087;-67
2022/01/29 09:36:39;;;;;;;6.90;2.92;;;5.70;82.50;;;;;;5134161;27;20028;-67
2022/01/29 09:39:05;;;;;;;8.80;4.22;;;5.60;84.70;;;;;;5133454;27;20030;-68
2022/01/29 09:41:31;;;;;;;7.57;4.28;;;5.70;85.40;;;;;;5133794;27;20035;-70
2022/01/29 09:44:16;;;;;;;8.65;4.22;;;5.70;86.00;;;;;;5133228;27;20034;-68
2022/01/29 09:46:44;;;;;;;7.25;3.67;;;5.70;86.60;;;;;;5132468;27;20023;-69
2022/01/29 09:49:11;;;;;;;7.97;4.07;;;5.80;87.00;;;;;;5133383;27;20027;-67
2022/01/29 09:51:38;;;;;;;8.52;4.45;;;5.80;87.00;;;;;;5133559;27;20136;-68
2022/01/29 09:54:04;;;;;;;9.50;3.95;;;5.90;86.60;;;;;;5132219;27;20042;-67
2022/01/29 09:56:31;;;;;;;7.85;4.15;;;5.90;86.30;;;;;;5131736;27;20043;-67
2022/01/29 09:58:57;;;;;;;10.07;3.78;;;6.00;85.10;;;;;;5128802;27;20038;-67
2022/01/29 10:01:23;;;;;;;7.18;4.18;;;6.00;85.00;;;;;;5131982;27;20031;-67
2022/01/29 10:04:03;;;;;;;7.90;4.10;;;6.10;84.50;;;;;;5131168;27;20137;-67
2022/01/29 10:06:29;;;;;;;8.65;4.43;;;6.20;82.90;;;;;;5131625;27;20374;-67
2022/01/29 10:08:55;;;;;;;9.38;4.22;;;6.30;81.00;;;;;;5131670;27;20098;-67
2022/01/29 10:11:24;;;;;;;6.93;4.05;;;6.30;79.20;;;;;;5131501;27;20484;-66
2022/01/29 10:13:52;;;;;;;6.32;3.35;;;6.30;78.30;;;;;;5131243;27;20118;-66
2022/01/29 10:16:23;;;;;;;9.93;4.10;;;6.40;77.30;;;;;;5132223;27;20027;-66
2022/01/29 10:19:05;;;;;;;;;;;6.50;75.70;;;;;;5131585;27;20033;-67
2022/01/29 10:21:36;;;;;;;7.65;3.70;;;6.50;72.80;;;;;;5131549;27;19915;-66
2022/01/29 10:24:07;;;;;;;8.20;3.50;;;6.50;71.50;;;;;;5129273;27;20103;-67
2022/01/29 10:26:37;;;;;;;9.18;3.67;;;6.50;70.40;;;;;;5131949;27;20519;-67
2022/01/29 10:29:08;;;;;;;6.82;3.13;;;6.60;69.60;;;;;;5131178;27;20225;-67
2022/01/29 10:31:41;;;;;;;5.32;3.20;;;6.70;66.90;;;;;;5131829;27;20046;-67
2022/01/29 10:34:33;;;;;;;9.10;3.13;;;6.80;66.80;;;;;;5128647;27;20019;-66
2022/01/29 10:37:17;;;;;;;4.78;2.55;;;6.80;65.90;;;;;;5130391;27;20095;-67
2022/01/29 10:40:03;;;;;;;8.48;3.30;;;6.90;65.40;;;;;;5129723;27;20030;-67
2022/01/29 10:42:33;;;;;;;4.88;3.00;;;6.90;65.20;;;;;;5114952;27;20080;-67
2022/01/29 10:45:03;;;;;;;5.50;2.88;;;7.00;64.70;;;;;;5131111;27;20029;-68
2022/01/29 10:47:55;;;;;;;4.28;2.40;;;7.00;64.30;;;;;;5127831;27;20105;-69
2022/01/29 10:50:21;;;;;;;7.35;2.95;;;7.00;64.20;;;;;;5133690;27;20027;-66
2022/01/29 10:52:48;;;;;;;6.90;2.78;;;7.10;63.90;;;;;;5132081;27;20026;-67
2022/01/29 10:55:14;;;;;;;6.05;2.80;;;7.10;64.20;;;;;;5114134;27;20380;-66
2022/01/29 11:00:31;;;;;;;9.07;3.13;;;7.20;64.40;;;;;;5132242;27;20042;-66
2022/01/29 11:03:15;;;;;;;6.72;3.35;;;7.20;64.60;;;;;;5132077;28;20027;-67
2022/01/29 11:05:43;;;;;;;5.85;3.22;;;7.20;64.90;;;;;;5132727;28;20098;-65
2022/01/29 11:08:09;;;;;;;4.97;3.13;;;7.20;65.90;;;;;;5132162;28;20027;-66
2022/01/29 11:10:34;;;;;;;9.35;3.72;;;7.20;65.20;;;;;;5128972;28;20038;-65
2022/01/29 11:13:01;;;;;;;4.97;3.40;;;7.30;65.50;;;;;;5132356;28;20030;-65
2022/01/29 11:15:28;;;;;;;8.20;3.30;;;7.30;65.90;;;;;;5132376;28;20035;-65
2022/01/29 11:17:54;;;;;;;8.25;3.22;;;7.40;65.80;;;;;;5131605;28;20079;-65
2022/01/29 11:20:20;;;;;;;5.18;3.30;;;7.40;65.70;;;;;;5132374;28;20397;-64
2022/01/29 11:22:50;;;;;;;6.30;3.67;;;7.40;65.80;;;;;;5132577;27;20125;-68
2022/01/29 11:25:27;;;;;;;7.28;3.22;;;7.50;68.50;;;;;;5136657;27;20055;-67
2022/01/29 11:28:15;;;;;;;8.85;3.13;;;7.50;67.40;;;;;;5136281;27;20027;-68
2022/01/29 11:30:43;;;;;;;5.57;3.20;;;7.50;68.20;;;;;;5118071;27;20069;-68
2022/01/29 11:33:09;;;;;;;8.48;3.25;;;7.50;69.90;;;;;;5136067;27;20076;-68
2022/01/29 11:35:50;;;;;;;6.82;2.80;;;7.40;71.30;;;;;;5136692;27;20019;-68
2022/01/29 11:38:27;;;;;;;6.88;3.15;;;7.30;72.10;;;;;;5136630;27;20023;-70
2022/01/29 11:40:58;;;;;;;7.13;2.95;;;7.30;74.10;;;;;;5136024;27;20071;-68
2022/01/29 11:43:28;;;;;;;5.07;2.60;;;7.20;75.10;;;;;;5136261;27;20023;-65
2022/01/29 11:46:20;;;;;;;5.10;2.55;;;7.20;76.90;;;;;;5135715;27;20042;-65
2022/01/29 11:48:56;;;;;;;5.15;2.50;;;7.00;80.50;;;;;;5136157;27;20531;-65
2022/01/29 11:51:42;;;;;;;8.63;3.65;;;6.80;83.60;;;;;;5135797;27;20496;-65
2022/01/29 11:54:10;;;;;;;5.38;3.67;;;6.60;85.80;;;;;;5135473;27;20110;-65
2022/01/29 11:56:41;;;;;;;10.95;3.63;;;6.50;87.80;;;;;;5136356;27;20043;-65
2022/01/29 11:59:19;;;;;;;9.07;3.78;;;6.40;89.30;;;;;;5135548;27;20023;-65
2022/01/29 12:01:54;;;;;;;5.97;3.58;;;6.30;90.50;;;;;;5135932;27;20054;-65
2022/01/29 12:04:21;;;;;;;6.35;3.58;;;6.30;91.10;;;;;;5136144;27;20030;-65
2022/01/29 12:07:09;;;;;;;8.70;3.85;;;6.20;91.70;;;;;;5135964;27;20023;-67
2022/01/29 12:09:47;;;;;;;7.47;3.80;;;6.20;92.10;;;;;;5135836;27;20027;-66
2022/01/29 12:12:27;;;;;;;7.20;3.67;;;6.10;92.50;;;;;;5134969;27;20027;-65
2022/01/29 12:14:57;;;;;;;7.38;3.45;;;6.10;93.40;;;;;;5135926;27;20475;-66
2022/01/29 12:17:48;;;;;;;6.10;3.33;;;6.00;93.50;;;;;;5136494;27;20081;-64
2022/01/29 12:20:25;;;;;;;8.30;4.28;;;6.00;94.30;;;;;;5134978;27;20035;-66
2022/01/29 12:23:10;;;;;;;10.07;4.22;;;5.90;95.30;;;;;;5134838;27;20027;-64
2022/01/29 12:25:36;;;;;;;8.85;4.38;;;5.90;96.10;;;;;;5121404;27;20474;-64
2022/01/29 12:28:06;;;;;;;7.93;4.07;;;5.90;97.00;;;;;;5126220;27;20023;-64
2022/01/29 12:30:35;;;;;;;7.20;3.88;;;5.90;97.50;;;;;;5124677;27;20035;-67
2022/01/29 12:33:01;;;;;;;6.15;3.67;;;5.80;97.90;;;;;;5112716;28;20030;-65
2022/01/29 12:35:58;;;;;;;4.72;2.80;;;5.80;98.30;;;;;;5129406;27;20027;-64
2022/01/29 12:38:41;;;;;;;6.63;3.28;;;5.80;98.10;;;;;;5123494;27;20501;-66
2022/01/29 12:41:11;;;;;;;6.13;3.53;;;5.80;98.70;;;;;;5138399;27;20088;-64
2022/01/29 12:43:51;;;;;;;6.30;3.20;;;5.70;99.20;;;;;;5149993;27;20045;-64
2022/01/29 12:46:17;;;;;;;5.28;3.05;;;5.70;99.00;;;;;;5131760;27;20019;-64
2022/01/29 12:48:57;;;;;;;4.03;2.55;;;5.60;99.20;;;;;;5134730;27;20035;-63
2022/01/29 12:51:22;;;;;;;4.32;2.88;;;5.60;99.60;;;;;;5135062;27;20039;-63
2022/01/29 12:53:59;;;;;;;6.00;2.90;;;5.50;99.70;;;;;;5135025;27;20441;-66
2022/01/29 12:56:51;;;;;;;7.53;2.70;;;5.50;99.90;;;;;;5135365;27;20045;-65
2022/01/29 12:59:17;;;;;;;5.70;2.75;;;5.40;99.90;;;;;;5130203;27;20043;-65
2022/01/29 13:01:45;;;;;;;4.75;2.30;;;5.40;99.90;;;;;;5134894;27;20088;-64
2022/01/29 13:04:16;;;;;;;4.47;2.67;;;5.40;99.90;;;;;;5134412;27;20363;-65
2022/01/29 13:06:42;;;;;;;5.47;2.50;;;5.30;99.90;;;;;;5134968;27;20034;-64
2022/01/29 13:09:24;;;;;;;5.65;3.05;;;5.30;99.90;;;;;;5134428;27;20027;-63
2022/01/29 13:12:01;;;;;;;5.85;2.55;;;5.30;99.90;;;;;;5134742;27;20439;-66
2022/01/29 13:14:28;;;;;;;5.85;2.65;;;5.20;99.90;;;;;;5130025;27;20028;-65
2022/01/29 13:16:57;;;;;;;4.57;2.88;;;5.20;99.90;;;;;;5128535;27;20019;-63
2022/01/29 13:19:25;;;;;;;6.97;3.00;;;5.20;99.90;;;;;;5129009;27;20016;-64
2022/01/29 13:21:56;;;;;;;6.07;2.38;;;5.20;99.90;;;;;;5116042;27;20428;-64